sensor_id;sensor_type;location;lat;lon;timestamp;temperature;humidity
47252;DHT22;32991;51.374;11.586;2022-12-18T00:02:03;-7.90;99.90
47252;DHT22;32991;51.374;11.586;2022-12-18T00:04:30;-8.00;99.90
47252;DHT22;32991;51.374;11.586;2022-12-18T00:06:57;-8.00;99.90
47252;DHT22;32991;51.374;11.586;2022-12-18T00:09:23;-8.00;99.90
47252;DHT22;32991;51.374;11.586;2022-12-18T00:11:56;-8.00;99.90
47252;DHT22;32991;51.374;11.586;2022-12-18T00:14:23;-8.10;99.90
47252;DHT22;32991;51.374;11.586;2022-12-18T00:16:50;-8.10;99.90
47252;DHT22;32991;51.374;11.586;2022-12-18T00:19:17;-8.00;99.90
47252;DHT22;32991;51.374;11.586;2022-12-18T00:21:43;-8.10;99.90
47252;DHT22;32991;51.374;11.586;2022-12-18T00:24:11;-8.10;99.90
47252;DHT22;32991;51.374;11.586;2022-12-18T00:26:38;-8.20;99.90
47252;DHT22;32991;51.374;11.586;2022-12-18T00:29:10;-8.30;99.90
47252;DHT22;32991;51.374;11.586;2022-12-18T00:31:37;-8.40;99.90
47252;DHT22;32991;51.374;11.586;2022-12-18T00:34:04;-8.50;99.90
47252;DHT22;32991;51.374;11.586;2022-12-18T00:36:32;-8.60;99.90
47252;DHT22;32991;51.374;11.586;2022-12-18T00:39:00;-8.60;99.90
47252;DHT22;32991;51.374;11.586;2022-12-18T00:41:27;-8.60;99.90
47252;DHT22;32991;51.374;11.586;2022-12-18T00:44:13;-8.70;99.90
47252;DHT22;32991;51.374;11.586;2022-12-18T00:46:41;-8.70;99.90
47252;DHT22;32991;51.374;11.586;2022-12-18T00:49:08;-8.70;99.90
47252;DHT22;32991;51.374;11.586;2022-12-18T00:51:34;-8.80;99.90
47252;DHT22;32991;51.374;11.586;2022-12-18T00:54:01;-8.80;99.90
47252;DHT22;32991;51.374;11.586;2022-12-18T00:56:28;-8.80;99.90
47252;DHT22;32991;51.374;11.586;2022-12-18T00:58:54;-8.80;99.90
47252;DHT22;32991;51.374;11.586;2022-12-18T01:01:21;-8.80;99.90
47252;DHT22;32991;51.374;11.586;2022-12-18T01:03:48;-8.90;99.90
47252;DHT22;32991;51.374;11.586;2022-12-18T01:06:15;-9.00;99.90
47252;DHT22;32991;51.374;11.586;2022-12-18T01:08:42;-9.00;99.90
47252;DHT22;32991;51.374;11.586;2022-12-18T01:11:16;-9.00;99.90
47252;DHT22;32991;51.374;11.586;2022-12-18T01:13:43;-9.00;99.90
47252;DHT22;32991;51.374;11.586;2022-12-18T01:16:13;-8.90;99.90
47252;DHT22;32991;51.374;11.586;2022-12-18T01:18:40;-8.90;99.90
47252;DHT22;32991;51.374;11.586;2022-12-18T01:21:08;-8.90;99.90
47252;DHT22;32991;51.374;11.586;2022-12-18T01:23:36;-8.90;99.90
47252;DHT22;32991;51.374;11.586;2022-12-18T01:26:07;-8.90;99.90
47252;DHT22;32991;51.374;11.586;2022-12-18T01:28:35;-8.90;99.90
47252;DHT22;32991;51.374;11.586;2022-12-18T01:31:21;-8.90;99.90
47252;DHT22;32991;51.374;11.586;2022-12-18T01:33:49;-9.00;99.90
47252;DHT22;32991;51.374;11.586;2022-12-18T01:36:37;-9.00;99.90
47252;DHT22;32991;51.374;11.586;2022-12-18T01:39:06;-9.00;99.90
47252;DHT22;32991;51.374;11.586;2022-12-18T01:41:33;-9.00;99.90
47252;DHT22;32991;51.374;11.586;2022-12-18T01:47:04;-8.90;99.90
47252;DHT22;32991;51.374;11.586;2022-12-18T01:49:31;-9.00;99.90
47252;DHT22;32991;51.374;11.586;2022-12-18T01:51:58;-9.00;99.90
47252;DHT22;32991;51.374;11.586;2022-12-18T01:54:25;-9.00;99.90
47252;DHT22;32991;51.374;11.586;2022-12-18T01:56:51;-8.90;99.90
47252;DHT22;32991;51.374;11.586;2022-12-18T01:59:18;-9.00;99.90
47252;DHT22;32991;51.374;11.586;2022-12-18T02:01:45;-9.00;99.90
47252;DHT22;32991;51.374;11.586;2022-12-18T02:07:12;-9.00;99.90
47252;DHT22;32991;51.374;11.586;2022-12-18T02:09:54;-9.00;99.90
47252;DHT22;32991;51.374;11.586;2022-12-18T02:12:24;-9.10;99.90
47252;DHT22;32991;51.374;11.586;2022-12-18T02:14:59;-9.20;99.90
47252;DHT22;32991;51.374;11.586;2022-12-18T02:17:37;-9.40;99.90
47252;DHT22;32991;51.374;11.586;2022-12-18T02:27:56;-10.00;99.90
47252;DHT22;32991;51.374;11.586;2022-12-18T02:30:26;-10.10;99.90
47252;DHT22;32991;51.374;11.586;2022-12-18T02:32:55;-10.30;99.90
47252;DHT22;32991;51.374;11.586;2022-12-18T02:35:23;-10.40;99.90
47252;DHT22;32991;51.374;11.586;2022-12-18T02:37:53;-10.50;99.90
47252;DHT22;32991;51.374;11.586;2022-12-18T02:40:21;-10.60;99.90
47252;DHT22;32991;51.374;11.586;2022-12-18T02:42:49;-10.70;99.90
47252;DHT22;32991;51.374;11.586;2022-12-18T02:45:17;-10.80;99.90
47252;DHT22;32991;51.374;11.586;2022-12-18T02:47:46;-10.80;99.90
47252;DHT22;32991;51.374;11.586;2022-12-18T02:51:17;-10.90;99.90
47252;DHT22;32991;51.374;11.586;2022-12-18T02:53:13;-10.90;99.90
47252;DHT22;32991;51.374;11.586;2022-12-18T03:03:35;-11.00;99.90
47252;DHT22;32991;51.374;11.586;2022-12-18T03:06:06;-11.00;99.90
47252;DHT22;32991;51.374;11.586;2022-12-18T03:08:36;-11.00;99.90
47252;DHT22;32991;51.374;11.586;2022-12-18T03:11:05;-11.00;99.90
47252;DHT22;32991;51.374;11.586;2022-12-18T03:13:46;-11.00;99.90
47252;DHT22;32991;51.374;11.586;2022-12-18T03:16:18;-11.00;99.90
47252;DHT22;32991;51.374;11.586;2022-12-18T03:18:49;-11.00;99.90
47252;DHT22;32991;51.374;11.586;2022-12-18T03:21:21;-11.00;99.90
47252;DHT22;32991;51.374;11.586;2022-12-18T03:23:50;-11.00;99.90
47252;DHT22;32991;51.374;11.586;2022-12-18T03:26:23;-11.00;99.90
47252;DHT22;32991;51.374;11.586;2022-12-18T03:28:56;-11.00;99.90
47252;DHT22;32991;51.374;11.586;2022-12-18T03:31:25;-11.00;99.90
47252;DHT22;32991;51.374;11.586;2022-12-18T03:33:55;-11.00;99.90
47252;DHT22;32991;51.374;11.586;2022-12-18T03:36:30;-11.00;99.90
47252;DHT22;32991;51.374;11.586;2022-12-18T03:38:57;-11.00;99.90
47252;DHT22;32991;51.374;11.586;2022-12-18T03:41:33;-10.90;99.90
47252;DHT22;32991;51.374;11.586;2022-12-18T03:49:42;-11.00;99.90
47252;DHT22;32991;51.374;11.586;2022-12-18T03:52:17;-11.00;99.90
47252;DHT22;32991;51.374;11.586;2022-12-18T03:54:44;-10.90;99.90
47252;DHT22;32991;51.374;11.586;2022-12-18T03:57:19;-10.80;99.90
47252;DHT22;32991;51.374;11.586;2022-12-18T03:59:50;-10.80;99.90
47252;DHT22;32991;51.374;11.586;2022-12-18T04:02:21;-10.70;99.90
47252;DHT22;32991;51.374;11.586;2022-12-18T04:04:50;-10.70;99.90
47252;DHT22;32991;51.374;11.586;2022-12-18T04:07:18;-10.80;99.90
47252;DHT22;32991;51.374;11.586;2022-12-18T04:09:46;-10.80;99.90
47252;DHT22;32991;51.374;11.586;2022-12-18T04:12:14;-10.80;99.90
47252;DHT22;32991;51.374;11.586;2022-12-18T04:14:42;-10.80;99.90
47252;DHT22;32991;51.374;11.586;2022-12-18T04:17:09;-10.80;99.90
47252;DHT22;32991;51.374;11.586;2022-12-18T04:19:36;-10.80;99.90
47252;DHT22;32991;51.374;11.586;2022-12-18T04:22:03;-10.90;99.90
47252;DHT22;32991;51.374;11.586;2022-12-18T04:24:37;-10.90;99.90
47252;DHT22;32991;51.374;11.586;2022-12-18T04:27:11;-10.90;99.90
47252;DHT22;32991;51.374;11.586;2022-12-18T04:29:43;-11.00;99.90
47252;DHT22;32991;51.374;11.586;2022-12-18T04:32:10;-11.00;99.90
47252;DHT22;32991;51.374;11.586;2022-12-18T04:34:38;-11.10;99.90
47252;DHT22;32991;51.374;11.586;2022-12-18T04:37:04;-11.00;99.90
47252;DHT22;32991;51.374;11.586;2022-12-18T04:39:31;-11.00;99.90
47252;DHT22;32991;51.374;11.586;2022-12-18T04:42:05;-10.90;99.90
47252;DHT22;32991;51.374;11.586;2022-12-18T04:44:33;-10.80;99.90
47252;DHT22;32991;51.374;11.586;2022-12-18T04:46:59;-10.70;99.90
47252;DHT22;32991;51.374;11.586;2022-12-18T04:49:26;-10.70;99.90
47252;DHT22;32991;51.374;11.586;2022-12-18T04:51:53;-10.70;99.90
47252;DHT22;32991;51.374;11.586;2022-12-18T04:54:20;-10.70;99.90
47252;DHT22;32991;51.374;11.586;2022-12-18T04:56:47;-10.80;99.90
47252;DHT22;32991;51.374;11.586;2022-12-18T04:59:14;-10.80;99.90
47252;DHT22;32991;51.374;11.586;2022-12-18T05:01:40;-10.90;99.90
47252;DHT22;32991;51.374;11.586;2022-12-18T05:04:07;-10.90;99.90
47252;DHT22;32991;51.374;11.586;2022-12-18T05:06:34;-10.90;99.90
47252;DHT22;32991;51.374;11.586;2022-12-18T05:09:01;-10.90;99.90
47252;DHT22;32991;51.374;11.586;2022-12-18T05:11:27;-10.90;99.90
47252;DHT22;32991;51.374;11.586;2022-12-18T05:13:54;-10.90;99.90
47252;DHT22;32991;51.374;11.586;2022-12-18T05:16:21;-10.90;99.90
47252;DHT22;32991;51.374;11.586;2022-12-18T05:18:48;-10.90;99.90
47252;DHT22;32991;51.374;11.586;2022-12-18T05:21:14;-10.90;99.90
47252;DHT22;32991;51.374;11.586;2022-12-18T05:23:41;-11.00;99.90
47252;DHT22;32991;51.374;11.586;2022-12-18T05:26:16;-11.00;99.90
47252;DHT22;32991;51.374;11.586;2022-12-18T05:28:43;-11.00;99.90
47252;DHT22;32991;51.374;11.586;2022-12-18T05:31:10;-11.10;99.90
47252;DHT22;32991;51.374;11.586;2022-12-18T05:33:37;-11.30;99.90
47252;DHT22;32991;51.374;11.586;2022-12-18T05:36:06;-11.40;99.90
47252;DHT22;32991;51.374;11.586;2022-12-18T05:38:34;-11.50;99.90
47252;DHT22;32991;51.374;11.586;2022-12-18T05:41:01;-11.50;99.90
47252;DHT22;32991;51.374;11.586;2022-12-18T05:43:28;-11.60;99.90
47252;DHT22;32991;51.374;11.586;2022-12-18T05:45:55;-11.70;99.90
47252;DHT22;32991;51.374;11.586;2022-12-18T05:48:23;-11.80;99.90
47252;DHT22;32991;51.374;11.586;2022-12-18T05:50:50;-11.90;99.90
47252;DHT22;32991;51.374;11.586;2022-12-18T05:53:18;-12.00;99.90
47252;DHT22;32991;51.374;11.586;2022-12-18T05:55:45;-12.00;99.90
47252;DHT22;32991;51.374;11.586;2022-12-18T05:58:12;-12.00;99.90
47252;DHT22;32991;51.374;11.586;2022-12-18T06:00:43;-12.10;99.90
47252;DHT22;32991;51.374;11.586;2022-12-18T06:03:11;-12.10;99.90
47252;DHT22;32991;51.374;11.586;2022-12-18T06:05:39;-12.10;99.90
47252;DHT22;32991;51.374;11.586;2022-12-18T06:08:06;-12.20;99.90
47252;DHT22;32991;51.374;11.586;2022-12-18T06:10:33;-12.20;99.90
47252;DHT22;32991;51.374;11.586;2022-12-18T06:13:00;-12.30;99.90
47252;DHT22;32991;51.374;11.586;2022-12-18T06:15:27;-12.30;99.90
47252;DHT22;32991;51.374;11.586;2022-12-18T06:17:53;-12.30;99.90
47252;DHT22;32991;51.374;11.586;2022-12-18T06:20:20;-12.30;99.90
47252;DHT22;32991;51.374;11.586;2022-12-18T06:22:47;-12.30;99.90
47252;DHT22;32991;51.374;11.586;2022-12-18T06:25:15;-12.30;99.90
47252;DHT22;32991;51.374;11.586;2022-12-18T06:27:42;-12.20;99.90
47252;DHT22;32991;51.374;11.586;2022-12-18T06:30:09;-12.20;99.90
47252;DHT22;32991;51.374;11.586;2022-12-18T06:32:36;-12.20;99.90
47252;DHT22;32991;51.374;11.586;2022-12-18T06:35:03;-12.10;99.90
47252;DHT22;32991;51.374;11.586;2022-12-18T06:37:30;-12.10;99.90
47252;DHT22;32991;51.374;11.586;2022-12-18T06:39:57;-12.00;99.90
47252;DHT22;32991;51.374;11.586;2022-12-18T06:42:24;-12.00;99.90
47252;DHT22;32991;51.374;11.586;2022-12-18T06:44:51;-12.00;99.90
47252;DHT22;32991;51.374;11.586;2022-12-18T06:47:17;-11.90;99.90
47252;DHT22;32991;51.374;11.586;2022-12-18T06:49:44;-11.90;99.90
47252;DHT22;32991;51.374;11.586;2022-12-18T06:52:11;-11.90;99.90
47252;DHT22;32991;51.374;11.586;2022-12-18T06:54:38;-11.90;99.90
47252;DHT22;32991;51.374;11.586;2022-12-18T06:57:04;-11.80;99.90
47252;DHT22;32991;51.374;11.586;2022-12-18T06:59:31;-11.80;99.90
47252;DHT22;32991;51.374;11.586;2022-12-18T07:01:58;-11.80;99.90
47252;DHT22;32991;51.374;11.586;2022-12-18T07:04:28;-11.80;99.90
47252;DHT22;32991;51.374;11.586;2022-12-18T07:06:55;-11.80;99.90
47252;DHT22;32991;51.374;11.586;2022-12-18T07:09:23;-11.80;99.90
47252;DHT22;32991;51.374;11.586;2022-12-18T07:11:50;-11.80;99.90
47252;DHT22;32991;51.374;11.586;2022-12-18T07:14:16;-11.80;99.90
47252;DHT22;32991;51.374;11.586;2022-12-18T07:16:43;-11.70;99.90
47252;DHT22;32991;51.374;11.586;2022-12-18T07:19:10;-11.70;99.90
47252;DHT22;32991;51.374;11.586;2022-12-18T07:21:36;-11.70;99.90
47252;DHT22;32991;51.374;11.586;2022-12-18T07:24:03;-11.70;99.90
47252;DHT22;32991;51.374;11.586;2022-12-18T07:26:30;-11.60;99.90
47252;DHT22;32991;51.374;11.586;2022-12-18T07:28:57;-11.60;99.90
47252;DHT22;32991;51.374;11.586;2022-12-18T07:31:24;-11.70;99.90
47252;DHT22;32991;51.374;11.586;2022-12-18T07:33:51;-11.60;99.90
47252;DHT22;32991;51.374;11.586;2022-12-18T07:36:18;-11.70;99.90
47252;DHT22;32991;51.374;11.586;2022-12-18T07:38:48;-11.60;99.90
47252;DHT22;32991;51.374;11.586;2022-12-18T07:41:15;-11.60;99.90
47252;DHT22;32991;51.374;11.586;2022-12-18T07:43:42;-11.50;99.90
47252;DHT22;32991;51.374;11.586;2022-12-18T07:46:10;-11.40;99.90
47252;DHT22;32991;51.374;11.586;2022-12-18T07:48:39;-11.40;99.90
47252;DHT22;32991;51.374;11.586;2022-12-18T07:51:07;-11.30;99.90
47252;DHT22;32991;51.374;11.586;2022-12-18T07:53:34;-11.20;99.90
47252;DHT22;32991;51.374;11.586;2022-12-18T07:56:02;-11.10;99.90
47252;DHT22;32991;51.374;11.586;2022-12-18T07:58:49;-11.10;99.90
47252;DHT22;32991;51.374;11.586;2022-12-18T08:01:16;-11.00;99.90
47252;DHT22;32991;51.374;11.586;2022-12-18T08:03:44;-11.00;99.90
47252;DHT22;32991;51.374;11.586;2022-12-18T08:06:10;-11.00;99.90
47252;DHT22;32991;51.374;11.586;2022-12-18T08:08:37;-11.00;99.90
47252;DHT22;32991;51.374;11.586;2022-12-18T08:11:04;-11.00;99.90
47252;DHT22;32991;51.374;11.586;2022-12-18T08:13:31;-10.90;99.90
47252;DHT22;32991;51.374;11.586;2022-12-18T08:16:06;-10.90;99.90
47252;DHT22;32991;51.374;11.586;2022-12-18T08:18:34;-10.80;99.90
47252;DHT22;32991;51.374;11.586;2022-12-18T08:21:35;-10.70;99.90
47252;DHT22;32991;51.374;11.586;2022-12-18T08:23:55;-10.60;99.90
47252;DHT22;32991;51.374;11.586;2022-12-18T08:26:23;-10.50;99.90
47252;DHT22;32991;51.374;11.586;2022-12-18T08:28:50;-10.40;99.90
47252;DHT22;32991;51.374;11.586;2022-12-18T08:31:17;-10.00;99.90
47252;DHT22;32991;51.374;11.586;2022-12-18T08:33:45;-8.60;99.90
47252;DHT22;32991;51.374;11.586;2022-12-18T08:36:12;-6.70;99.90
47252;DHT22;32991;51.374;11.586;2022-12-18T08:38:39;-4.80;99.90
47252;DHT22;32991;51.374;11.586;2022-12-18T08:41:08;-2.80;99.90
47252;DHT22;32991;51.374;11.586;2022-12-18T08:43:35;-1.10;99.90
47252;DHT22;32991;51.374;11.586;2022-12-18T08:46:21;0.30;99.90
47252;DHT22;32991;51.374;11.586;2022-12-18T08:48:50;1.80;99.90
47252;DHT22;32991;51.374;11.586;2022-12-18T08:51:17;2.90;99.90
47252;DHT22;32991;51.374;11.586;2022-12-18T08:53:44;4.20;99.30
47252;DHT22;32991;51.374;11.586;2022-12-18T08:56:11;5.20;92.30
47252;DHT22;32991;51.374;11.586;2022-12-18T08:58:39;5.80;90.90
47252;DHT22;32991;51.374;11.586;2022-12-18T09:01:06;6.60;91.20
47252;DHT22;32991;51.374;11.586;2022-12-18T09:03:33;7.50;82.80
47252;DHT22;32991;51.374;11.586;2022-12-18T09:06:00;7.90;73.90
47252;DHT22;32991;51.374;11.586;2022-12-18T09:08:27;8.10;75.20
47252;DHT22;32991;51.374;11.586;2022-12-18T09:10:54;8.60;75.40
47252;DHT22;32991;51.374;11.586;2022-12-18T09:13:21;9.20;72.60
47252;DHT22;32991;51.374;11.586;2022-12-18T09:15:49;9.80;71.70
47252;DHT22;32991;51.374;11.586;2022-12-18T09:18:16;10.40;66.90
47252;DHT22;32991;51.374;11.586;2022-12-18T09:20:43;10.60;64.00
47252;DHT22;32991;51.374;11.586;2022-12-18T09:23:10;10.90;65.70
47252;DHT22;32991;51.374;11.586;2022-12-18T09:25:37;11.70;64.50
47252;DHT22;32991;51.374;11.586;2022-12-18T09:28:11;12.60;61.80
47252;DHT22;32991;51.374;11.586;2022-12-18T09:30:42;13.30;60.00
47252;DHT22;32991;51.374;11.586;2022-12-18T09:33:09;13.90;57.90
47252;DHT22;32991;51.374;11.586;2022-12-18T09:35:36;14.10;55.60
47252;DHT22;32991;51.374;11.586;2022-12-18T09:38:03;13.90;54.80
47252;DHT22;32991;51.374;11.586;2022-12-18T09:40:33;13.80;55.50
47252;DHT22;32991;51.374;11.586;2022-12-18T09:43:02;13.70;54.70
47252;DHT22;32991;51.374;11.586;2022-12-18T09:45:32;13.40;52.70
47252;DHT22;32991;51.374;11.586;2022-12-18T09:48:05;13.00;52.60
47252;DHT22;32991;51.374;11.586;2022-12-18T09:50:34;12.60;52.30
47252;DHT22;32991;51.374;11.586;2022-12-18T09:53:04;12.30;52.80
47252;DHT22;32991;51.374;11.586;2022-12-18T09:55:34;12.40;52.60
47252;DHT22;32991;51.374;11.586;2022-12-18T09:58:07;12.50;52.80
47252;DHT22;32991;51.374;11.586;2022-12-18T10:00:38;12.60;51.60
47252;DHT22;32991;51.374;11.586;2022-12-18T10:03:14;12.60;51.60
47252;DHT22;32991;51.374;11.586;2022-12-18T10:08:13;12.90;52.00
47252;DHT22;32991;51.374;11.586;2022-12-18T10:10:51;13.10;51.20
47252;DHT22;32991;51.374;11.586;2022-12-18T10:20:52;11.40;51.10
47252;DHT22;32991;51.374;11.586;2022-12-18T10:25:55;8.10;53.70
47252;DHT22;32991;51.374;11.586;2022-12-18T10:28:26;6.20;56.00
47252;DHT22;32991;51.374;11.586;2022-12-18T10:30:53;4.40;58.20
47252;DHT22;32991;51.374;11.586;2022-12-18T10:33:21;2.80;60.50
47252;DHT22;32991;51.374;11.586;2022-12-18T10:35:49;1.60;63.00
47252;DHT22;32991;51.374;11.586;2022-12-18T10:43:19;-1.30;69.90
47252;DHT22;32991;51.374;11.586;2022-12-18T10:46:04;-1.90;72.00
47252;DHT22;32991;51.374;11.586;2022-12-18T10:48:33;-2.30;74.00
47252;DHT22;32991;51.374;11.586;2022-12-18T10:51:00;-2.60;76.00
47252;DHT22;32991;51.374;11.586;2022-12-18T10:53:38;-2.80;77.00
47252;DHT22;32991;51.374;11.586;2022-12-18T10:56:06;-3.10;77.90
47252;DHT22;32991;51.374;11.586;2022-12-18T10:58:34;-3.30;79.10
47252;DHT22;32991;51.374;11.586;2022-12-18T11:01:02;-3.40;80.40
47252;DHT22;32991;51.374;11.586;2022-12-18T11:03:37;-3.60;81.30
47252;DHT22;32991;51.374;11.586;2022-12-18T11:08:31;-3.80;85.10
47252;DHT22;32991;51.374;11.586;2022-12-18T11:11:00;-3.80;85.90
47252;DHT22;32991;51.374;11.586;2022-12-18T11:13:27;-3.80;88.50
47252;DHT22;32991;51.374;11.586;2022-12-18T11:15:55;-3.70;90.00
47252;DHT22;32991;51.374;11.586;2022-12-18T11:18:26;-3.60;90.70
47252;DHT22;32991;51.374;11.586;2022-12-18T11:20:55;-3.40;91.20
47252;DHT22;32991;51.374;11.586;2022-12-18T11:23:24;-3.40;91.70
47252;DHT22;32991;51.374;11.586;2022-12-18T11:25:56;-3.30;92.60
47252;DHT22;32991;51.374;11.586;2022-12-18T11:28:27;-3.30;93.20
47252;DHT22;32991;51.374;11.586;2022-12-18T11:31:12;-3.20;93.60
47252;DHT22;32991;51.374;11.586;2022-12-18T11:33:39;-3.20;94.30
47252;DHT22;32991;51.374;11.586;2022-12-18T11:36:29;-3.20;95.10
47252;DHT22;32991;51.374;11.586;2022-12-18T11:38:57;-3.10;96.00
47252;DHT22;32991;51.374;11.586;2022-12-18T11:41:27;-3.00;96.80
47252;DHT22;32991;51.374;11.586;2022-12-18T11:44:16;-2.90;97.10
47252;DHT22;32991;51.374;11.586;2022-12-18T11:46:48;-2.90;96.70
47252;DHT22;32991;51.374;11.586;2022-12-18T11:49:23;-2.90;97.20
47252;DHT22;32991;51.374;11.586;2022-12-18T11:51:54;-2.90;97.50
47252;DHT22;32991;51.374;11.586;2022-12-18T11:54:22;-3.00;98.00
47252;DHT22;32991;51.374;11.586;2022-12-18T11:56:49;-3.00;98.90
47252;DHT22;32991;51.374;11.586;2022-12-18T11:59:26;-3.00;99.70
47252;DHT22;32991;51.374;11.586;2022-12-18T12:01:56;-3.00;99.90
47252;DHT22;32991;51.374;11.586;2022-12-18T12:04:34;-3.00;99.90
47252;DHT22;32991;51.374;11.586;2022-12-18T12:17:50;-3.10;99.90
47252;DHT22;32991;51.374;11.586;2022-12-18T12:20:32;-3.10;99.90
47252;DHT22;32991;51.374;11.586;2022-12-18T12:25:43;-3.10;99.90
47252;DHT22;32991;51.374;11.586;2022-12-18T12:28:24;-2.90;99.90
47252;DHT22;32991;51.374;11.586;2022-12-18T12:38:57;-2.60;99.90
47252;DHT22;32991;51.374;11.586;2022-12-18T12:41:25;-2.60;99.90
47252;DHT22;32991;51.374;11.586;2022-12-18T12:44:15;-2.70;99.90
47252;DHT22;32991;51.374;11.586;2022-12-18T12:46:43;-2.80;99.90
47252;DHT22;32991;51.374;11.586;2022-12-18T12:49:17;-2.90;99.90
47252;DHT22;32991;51.374;11.586;2022-12-18T12:51:45;-3.00;99.90
47252;DHT22;32991;51.374;11.586;2022-12-18T12:54:17;-3.20;99.90
47252;DHT22;32991;51.374;11.586;2022-12-18T12:56:50;-3.30;99.90
47252;DHT22;32991;51.374;11.586;2022-12-18T13:01:57;-3.60;99.90
47252;DHT22;32991;51.374;11.586;2022-12-18T13:07:28;-3.90;99.90
47252;DHT22;32991;51.374;11.586;2022-12-18T13:13:04;-4.00;99.90
47252;DHT22;32991;51.374;11.586;2022-12-18T13:15:37;-4.10;99.90
47252;DHT22;32991;51.374;11.586;2022-12-18T13:20:33;-4.30;99.90
47252;DHT22;32991;51.374;11.586;2022-12-18T13:23:00;-4.40;99.90
47252;DHT22;32991;51.374;11.586;2022-12-18T13:27:57;-4.60;99.90
47252;DHT22;32991;51.374;11.586;2022-12-18T13:35:50;-4.90;99.90
47252;DHT22;32991;51.374;11.586;2022-12-18T13:38:40;-5.00;99.90
47252;DHT22;32991;51.374;11.586;2022-12-18T13:43:46;-5.10;99.90
47252;DHT22;32991;51.374;11.586;2022-12-18T13:48:49;-5.10;99.90
47252;DHT22;32991;51.374;11.586;2022-12-18T13:51:17;-5.20;99.90
47252;DHT22;32991;51.374;11.586;2022-12-18T13:53:53;-5.20;99.90
47252;DHT22;32991;51.374;11.586;2022-12-18T13:56:22;-5.20;99.90
47252;DHT22;32991;51.374;11.586;2022-12-18T13:59:06;-5.30;99.90
47252;DHT22;32991;51.374;11.586;2022-12-18T14:01:36;-5.30;99.90
47252;DHT22;32991;51.374;11.586;2022-12-18T14:04:24;-5.30;99.90
47252;DHT22;32991;51.374;11.586;2022-12-18T14:07:12;-5.30;99.90
47252;DHT22;32991;51.374;11.586;2022-12-18T14:09:40;-5.40;99.90
47252;DHT22;32991;51.374;11.586;2022-12-18T14:12:13;-5.40;99.90
47252;DHT22;32991;51.374;11.586;2022-12-18T14:14:59;-5.40;99.90
47252;DHT22;32991;51.374;11.586;2022-12-18T14:17:27;-5.50;99.90
47252;DHT22;32991;51.374;11.586;2022-12-18T14:19:54;-5.60;99.90
47252;DHT22;32991;51.374;11.586;2022-12-18T14:22:23;-5.60;99.90
47252;DHT22;32991;51.374;11.586;2022-12-18T14:25:10;-5.60;99.90
47252;DHT22;32991;51.374;11.586;2022-12-18T14:27:44;-5.60;99.90
47252;DHT22;32991;51.374;11.586;2022-12-18T14:30:34;-5.60;99.90
47252;DHT22;32991;51.374;11.586;2022-12-18T14:33:02;-5.70;99.90
47252;DHT22;32991;51.374;11.586;2022-12-18T14:35:29;-5.70;99.90
47252;DHT22;32991;51.374;11.586;2022-12-18T14:40:41;-5.80;99.90
47252;DHT22;32991;51.374;11.586;2022-12-18T14:43:11;-5.80;99.90
47252;DHT22;32991;51.374;11.586;2022-12-18T14:45:39;-5.90;99.90
47252;DHT22;32991;51.374;11.586;2022-12-18T14:48:15;-5.90;99.90
47252;DHT22;32991;51.374;11.586;2022-12-18T14:51:23;-5.90;99.90
47252;DHT22;32991;51.374;11.586;2022-12-18T14:53:44;-6.00;99.90
47252;DHT22;32991;51.374;11.586;2022-12-18T14:56:25;-6.00;99.90
47252;DHT22;32991;51.374;11.586;2022-12-18T14:59:03;-6.00;99.90
47252;DHT22;32991;51.374;11.586;2022-12-18T15:01:31;-6.00;99.90
47252;DHT22;32991;51.374;11.586;2022-12-18T15:04:00;-6.10;99.90
47252;DHT22;32991;51.374;11.586;2022-12-18T15:06:29;-6.20;99.90
47252;DHT22;32991;51.374;11.586;2022-12-18T15:08:57;-6.20;99.90
47252;DHT22;32991;51.374;11.586;2022-12-18T15:14:22;-6.30;99.90
47252;DHT22;32991;51.374;11.586;2022-12-18T15:16:50;-6.30;99.90
47252;DHT22;32991;51.374;11.586;2022-12-18T15:19:16;-6.40;99.90
47252;DHT22;32991;51.374;11.586;2022-12-18T15:21:44;-6.40;99.90
47252;DHT22;32991;51.374;11.586;2022-12-18T15:24:18;-6.50;99.90
47252;DHT22;32991;51.374;11.586;2022-12-18T15:26:45;-6.50;99.90
47252;DHT22;32991;51.374;11.586;2022-12-18T15:29:17;-6.50;99.90
47252;DHT22;32991;51.374;11.586;2022-12-18T15:31:45;-6.60;99.90
47252;DHT22;32991;51.374;11.586;2022-12-18T15:34:23;-6.60;99.90
47252;DHT22;32991;51.374;11.586;2022-12-18T15:36:51;-6.70;99.90
47252;DHT22;32991;51.374;11.586;2022-12-18T15:39:18;-6.70;99.90
47252;DHT22;32991;51.374;11.586;2022-12-18T15:41:45;-6.80;99.90
47252;DHT22;32991;51.374;11.586;2022-12-18T15:44:44;-6.80;99.90
47252;DHT22;32991;51.374;11.586;2022-12-18T15:47:11;-6.80;99.90
47252;DHT22;32991;51.374;11.586;2022-12-18T15:49:38;-6.90;99.90
47252;DHT22;32991;51.374;11.586;2022-12-18T15:52:05;-6.90;99.90
47252;DHT22;32991;51.374;11.586;2022-12-18T15:54:32;-6.90;99.90
47252;DHT22;32991;51.374;11.586;2022-12-18T15:57:18;-6.90;99.90
47252;DHT22;32991;51.374;11.586;2022-12-18T15:59:51;-6.90;99.90
47252;DHT22;32991;51.374;11.586;2022-12-18T16:02:19;-6.90;99.90
47252;DHT22;32991;51.374;11.586;2022-12-18T16:04:47;-6.90;99.90
47252;DHT22;32991;51.374;11.586;2022-12-18T16:07:13;-6.90;99.90
47252;DHT22;32991;51.374;11.586;2022-12-18T16:09:50;-6.90;99.90
47252;DHT22;32991;51.374;11.586;2022-12-18T16:12:18;-6.90;99.90
47252;DHT22;32991;51.374;11.586;2022-12-18T16:14:45;-6.90;99.90
47252;DHT22;32991;51.374;11.586;2022-12-18T16:17:13;-6.90;99.90
47252;DHT22;32991;51.374;11.586;2022-12-18T16:19:43;-6.80;99.90
47252;DHT22;32991;51.374;11.586;2022-12-18T16:22:24;-6.90;99.90
47252;DHT22;32991;51.374;11.586;2022-12-18T16:24:51;-6.80;99.90
47252;DHT22;32991;51.374;11.586;2022-12-18T16:27:19;-6.90;99.90
47252;DHT22;32991;51.374;11.586;2022-12-18T16:29:46;-6.90;99.90
47252;DHT22;32991;51.374;11.586;2022-12-18T16:32:14;-6.80;99.90
47252;DHT22;32991;51.374;11.586;2022-12-18T16:34:41;-6.80;99.90
47252;DHT22;32991;51.374;11.586;2022-12-18T16:37:09;-6.80;99.90
47252;DHT22;32991;51.374;11.586;2022-12-18T16:39:36;-6.80;99.90
47252;DHT22;32991;51.374;11.586;2022-12-18T16:42:21;-6.80;99.90
47252;DHT22;32991;51.374;11.586;2022-12-18T16:44:48;-6.80;99.90
47252;DHT22;32991;51.374;11.586;2022-12-18T16:47:15;-6.80;99.90
47252;DHT22;32991;51.374;11.586;2022-12-18T16:49:42;-6.80;99.90
47252;DHT22;32991;51.374;11.586;2022-12-18T16:52:12;-6.70;99.90
47252;DHT22;32991;51.374;11.586;2022-12-18T16:54:38;-6.70;99.90
47252;DHT22;32991;51.374;11.586;2022-12-18T16:57:05;-6.70;99.90
47252;DHT22;32991;51.374;11.586;2022-12-18T16:59:32;-6.70;99.90
47252;DHT22;32991;51.374;11.586;2022-12-18T17:01:59;-6.60;99.90
47252;DHT22;32991;51.374;11.586;2022-12-18T17:04:26;-6.60;99.90
47252;DHT22;32991;51.374;11.586;2022-12-18T17:06:53;-6.50;99.90